createdAt,value
2016-12-02T00:00:13.616Z,75.24
2016-12-02T00:01:23.639Z,75.34
2016-12-02T00:02:33.963Z,75.34
2016-12-02T00:03:43.982Z,75.34
2016-12-02T00:04:54.304Z,75.24
2016-12-02T00:06:04.625Z,75.24
2016-12-02T00:07:14.332Z,75.05
2016-12-02T00:08:24.346Z,75.15
2016-12-02T00:09:34.673Z,75.15
2016-12-02T00:10:44.993Z,75.62
2016-12-02T00:11:55.009Z,75.34
2016-12-02T00:13:04.713Z,75.34
2016-12-02T00:14:14.723Z,75.62
2016-12-02T00:15:25.050Z,75.24
2016-12-02T00:16:34.752Z,74.96
2016-12-02T00:17:45.084Z,75.24
2016-12-02T00:18:55.101Z,75.34
2016-12-02T00:20:05.126Z,75.24
2016-12-02T00:21:15.483Z,75.34
2016-12-02T00:22:25.495Z,75.81
2016-12-02T00:23:35.211Z,75.34
2016-12-02T00:24:45.539Z,74.96
2016-12-02T00:25:55.866Z,75.15
2016-12-02T00:27:06.183Z,75.24
2016-12-02T00:28:16.245Z,75.34
2016-12-02T00:29:26.572Z,74.96
2016-12-02T00:30:36.583Z,75.24
2016-12-02T00:31:46.000Z,74.96
2016-12-02T00:32:56.326Z,74.96
2016-12-02T00:34:06.346Z,75.15
2016-12-02T00:35:16.669Z,75.24
2016-12-02T00:36:26.682Z,75.24
2016-12-02T00:37:36.380Z,75.24
2016-12-02T00:38:46.391Z,74.87
2016-12-02T00:39:56.393Z,75.24
2016-12-02T00:41:06.110Z,74.96
2016-12-02T00:42:16.123Z,75.34
2016-12-02T00:43:26.128Z,75.43
2016-12-02T00:44:36.140Z,75.43
2016-12-02T00:45:46.452Z,75.24
2016-12-02T00:46:56.787Z,75.24
2016-12-02T00:48:06.804Z,75.05
2016-12-02T00:49:16.822Z,75.53
2016-12-02T00:50:27.143Z,75.34
2016-12-02T00:51:37.456Z,75.24
2016-12-02T00:52:47.786Z,75.24
2016-12-02T00:53:57.803Z,75.15
2016-12-02T00:55:08.126Z,75.05
2016-12-02T00:56:18.487Z,75.24
2016-12-02T00:57:28.825Z,75.05
2016-12-02T00:58:38.847Z,75.15
2016-12-02T00:59:48.884Z,75.15
2016-12-02T01:00:58.898Z,75.05
2016-12-02T01:02:08.616Z,75.24
2016-12-02T01:03:18.661Z,75.15
2016-12-02T01:04:28.679Z,75.05
2016-12-02T01:05:38.701Z,75.05
2016-12-02T01:06:48.457Z,75.15
2016-12-02T01:07:58.485Z,74.96
2016-12-02T01:09:08.500Z,75.34
2016-12-02T01:10:18.522Z,75.05
2016-12-02T01:11:28.858Z,74.87
2016-12-02T01:12:39.198Z,75.24
2016-12-02T01:13:49.242Z,75.24
2016-12-02T01:14:59.259Z,75.05
2016-12-02T01:16:09.275Z,75.24
2016-12-02T01:17:19.607Z,74.87
2016-12-02T01:18:29.944Z,75.15
2016-12-02T01:19:40.255Z,75.05
2016-12-02T01:20:50.273Z,75.24
2016-12-02T01:22:00.619Z,75.34
2016-12-02T01:23:10.940Z,75.43
2016-12-02T01:24:20.954Z,75.34
2016-12-02T01:25:30.659Z,75.43
2016-12-02T01:26:40.672Z,75.43
2016-12-02T01:27:51.003Z,75.43
2016-12-02T01:29:01.325Z,75.43
2016-12-02T01:30:11.336Z,75.43
2016-12-02T01:31:21.369Z,75.43
2016-12-02T01:32:31.076Z,75.34
2016-12-02T01:33:41.398Z,75.24
2016-12-02T01:34:51.734Z,75.43
2016-12-02T01:36:01.442Z,75.43
2016-12-02T01:37:11.451Z,75.43
2016-12-02T01:38:21.788Z,75.24
2016-12-02T01:39:31.810Z,75.24
2016-12-02T01:40:41.817Z,75.43
2016-12-02T01:41:51.830Z,75.34
2016-12-02T01:43:02.164Z,75.43
2016-12-02T01:44:12.166Z,75.24
2016-12-02T01:45:21.862Z,75.43
2016-12-02T01:46:32.177Z,75.15
2016-12-02T01:47:42.496Z,75.24
2016-12-02T01:48:52.510Z,75.05
2016-12-02T01:50:02.847Z,75.43
2016-12-02T01:51:12.861Z,75.43
2016-12-02T01:52:22.878Z,75.43
2016-12-02T01:53:32.579Z,75.24
2016-12-02T01:54:42.624Z,75.34
2016-12-02T01:55:52.940Z,75.24
2016-12-02T01:57:02.645Z,75.15
2016-12-02T01:58:12.667Z,75.05
2016-12-02T01:59:22.714Z,75.43
2016-12-02T02:00:32.755Z,75.43
2016-12-02T02:01:42.797Z,75.34
2016-12-02T02:02:52.824Z,75.43
2016-12-02T02:04:02.215Z,75.53
2016-12-02T02:05:12.547Z,75.43
2016-12-02T02:06:22.899Z,75.43
2016-12-02T02:07:33.233Z,75.34
2016-12-02T02:08:42.928Z,75.43
2016-12-02T02:09:53.247Z,75.43
2016-12-02T02:11:03.578Z,75.34
2016-12-02T02:12:13.893Z,75.34
2016-12-02T02:13:24.214Z,75.43
2016-12-02T02:14:34.540Z,75.24
2016-12-02T02:15:44.882Z,75.34
2016-12-02T02:16:55.216Z,75.43
2016-12-02T02:18:05.537Z,75.43
2016-12-02T02:19:16.097Z,75.34
2016-12-02T02:20:26.424Z,75.43
2016-12-02T02:21:36.121Z,75.24
2016-12-02T02:22:45.861Z,75.24
2016-12-02T02:23:55.873Z,75.34
2016-12-02T02:25:05.266Z,75.24
2016-12-02T02:26:15.597Z,75.24
2016-12-02T02:27:25.912Z,74.96
2016-12-02T02:28:35.930Z,75.34
2016-12-02T02:29:45.943Z,75.43
2016-12-02T02:30:56.274Z,75.43
2016-12-02T02:32:06.601Z,75.24
2016-12-02T02:33:16.303Z,75.43
2016-12-02T02:34:26.306Z,75.24
2016-12-02T02:35:36.026Z,75.24
2016-12-02T02:36:46.042Z,75.34
2016-12-02T02:37:56.055Z,75.15
2016-12-02T02:39:06.382Z,75.15
2016-12-02T02:40:16.389Z,75.24
2016-12-02T02:41:26.706Z,75.24
2016-12-02T02:42:36.712Z,75.24
2016-12-02T02:43:47.040Z,75.05
2016-12-02T02:44:57.058Z,75.34
2016-12-02T02:46:07.381Z,75.24
2016-12-02T02:47:17.704Z,75.34
2016-12-02T02:48:27.091Z,75.15
2016-12-02T02:49:36.795Z,75.15
2016-12-02T02:50:46.883Z,75.15
2016-12-02T02:51:56.895Z,75.15
2016-12-02T02:53:07.217Z,75.15
2016-12-02T02:54:17.227Z,75.05
2016-12-02T02:55:27.549Z,75.24
2016-12-02T02:56:37.871Z,75.15
2016-12-02T02:57:48.244Z,75.05
2016-12-02T02:58:58.558Z,75.15
2016-12-02T03:00:08.580Z,75.15
2016-12-02T03:01:18.928Z,75.15
2016-12-02T03:32:54.835Z,71.67
2016-12-02T03:34:04.578Z,72.15
2016-12-02T03:35:14.593Z,73.38
2016-12-02T03:36:24.598Z,74.52
2016-12-02T03:37:34.620Z,75.19
2016-12-02T03:38:44.942Z,75.67
2016-12-02T03:39:55.277Z,76.14
2016-12-02T03:41:05.595Z,75.85
2016-12-02T03:42:15.621Z,76.37
2016-12-02T03:43:25.002Z,76.75
2016-12-02T03:44:35.364Z,76.56
2016-12-02T03:45:45.686Z,76.56
2016-12-02T03:46:55.719Z,76.37
2016-12-02T03:48:06.053Z,76.37
2016-12-02T03:49:16.416Z,76.31
2016-12-02T03:50:26.438Z,76.59
2016-12-02T03:51:36.765Z,76.4
2016-12-02T03:52:46.793Z,76.21
2016-12-02T03:53:57.116Z,76.12
2016-12-02T03:55:07.130Z,76.03
2016-12-02T03:56:16.832Z,76.03
2016-12-02T03:57:26.851Z,76.12
2016-12-02T03:58:37.173Z,76.21
2016-12-02T03:59:47.508Z,76.06
2016-12-02T04:00:57.523Z,75.74
2016-12-02T04:02:07.236Z,75.49
2016-12-02T04:03:17.556Z,75.59
2016-12-02T04:04:27.886Z,75.68
2016-12-02T04:05:37.599Z,75.55
2016-12-02T04:06:47.300Z,75.96
2016-12-02T04:07:56.998Z,75.55
2016-12-02T04:09:07.354Z,75.68
2016-12-02T04:10:17.370Z,75.59
2016-12-02T04:11:27.382Z,75.78
2016-12-02T04:12:37.388Z,75.87
2016-12-02T04:13:47.706Z,75.87
2016-12-02T04:14:57.443Z,75.96
2016-12-02T04:16:07.471Z,75.78
2016-12-02T04:17:16.856Z,75.68
2016-12-02T04:18:27.196Z,75.68
2016-12-02T04:19:37.216Z,75.78
2016-12-02T04:20:47.247Z,75.78
2016-12-02T04:21:57.302Z,75.59
2016-12-02T04:23:07.629Z,75.78
2016-12-02T04:24:17.951Z,75.78
2016-12-02T04:25:27.963Z,75.87
2016-12-02T04:26:38.332Z,75.87
2016-12-02T04:27:48.345Z,75.87
2016-12-02T04:28:58.667Z,75.78
2016-12-02T04:30:08.989Z,75.87
2016-12-02T04:31:19.001Z,75.87
2016-12-02T04:32:28.740Z,75.87
2016-12-02T04:33:38.757Z,75.68
2016-12-02T04:34:48.771Z,75.87
2016-12-02T04:35:58.791Z,75.68
2016-12-02T04:37:09.125Z,75.59
2016-12-02T04:38:19.139Z,75.59
2016-12-02T04:39:28.844Z,75.87
2016-12-02T04:40:39.154Z,75.78
2016-12-02T04:41:49.486Z,75.78
2016-12-02T04:42:59.521Z,75.59
2016-12-02T04:44:09.849Z,75.87
2016-12-02T04:45:19.869Z,75.87
2016-12-02T04:46:29.878Z,75.4
2016-12-02T04:47:39.579Z,75.78
2016-12-02T04:48:49.941Z,75.78
2016-12-02T04:49:59.962Z,75.78
2016-12-02T04:51:09.665Z,75.87
2016-12-02T04:52:19.361Z,75.78
2016-12-02T04:53:29.674Z,75.4
2016-12-02T04:54:39.995Z,75.3
2016-12-02T04:55:50.033Z,75.21
2016-12-02T04:57:00.286Z,75.49
2016-12-02T04:58:10.600Z,75.3
2016-12-02T04:59:20.923Z,75.59
2016-12-02T05:00:30.328Z,75.49
2016-12-02T05:01:40.635Z,75.4
2016-12-02T05:02:50.975Z,75.3
2016-12-02T05:04:01.312Z,75.49
2016-12-02T05:05:11.340Z,75.4
2016-12-02T05:06:21.660Z,75.3
2016-12-02T05:07:31.982Z,75.49
2016-12-02T05:08:42.310Z,75.3
2016-12-02T05:09:52.326Z,75.68
2016-12-02T05:11:02.352Z,75.02
2016-12-02T05:12:12.667Z,75.11
2016-12-02T05:13:22.377Z,75.02
2016-12-02T05:14:32.408Z,75.02
2016-12-02T05:15:42.419Z,75.21
2016-12-02T05:16:52.737Z,75.02
2016-12-02T05:18:02.123Z,75.02
2016-12-02T05:19:12.450Z,75.24
2016-12-02T05:20:22.782Z,75.15
2016-12-02T05:21:33.118Z,75.24
2016-12-02T05:22:43.450Z,75.11
2016-12-02T05:23:53.763Z,75.3
2016-12-02T05:25:04.107Z,75.59
2016-12-02T05:26:14.439Z,75.3
2016-12-02T05:27:24.135Z,75.24
2016-12-02T05:28:34.163Z,75.34
2016-12-02T05:29:44.494Z,75.43
2016-12-02T05:30:54.838Z,75.34
2016-12-02T05:32:04.898Z,75.34
2016-12-02T05:33:15.211Z,75.62
2016-12-02T05:34:24.600Z,75.43
2016-12-02T05:35:34.609Z,75.53
2016-12-02T05:36:44.315Z,75.43
2016-12-02T05:37:54.632Z,75.34
2016-12-02T05:39:04.013Z,75.43
2016-12-02T05:40:13.721Z,75.53
2016-12-02T05:41:23.421Z,75.4
2016-12-02T05:42:33.444Z,75.62
2016-12-02T05:43:43.465Z,75.4
2016-12-02T05:44:53.480Z,75.62
2016-12-02T05:46:03.817Z,75.81
2016-12-02T05:47:14.149Z,75.43
2016-12-02T05:48:24.166Z,75.21
2016-12-02T05:49:33.869Z,75.34
2016-12-02T05:50:43.884Z,75.34
2016-12-02T05:51:54.222Z,75.34
2016-12-02T05:53:04.533Z,75.43
2016-12-02T05:54:14.855Z,75.34
2016-12-02T05:55:24.870Z,75.53
2016-12-02T05:56:34.577Z,75.72
2016-12-02T05:57:44.287Z,75.91
2016-12-02T05:58:54.621Z,75.91
2016-12-02T06:00:04.642Z,75.72
2016-12-02T06:01:14.660Z,75.43
2016-12-02T06:02:24.981Z,75.43
2016-12-02T06:03:34.686Z,75.53
2016-12-02T06:04:44.714Z,75.72
2016-12-02T06:05:54.110Z,75.53
2016-12-02T06:07:04.118Z,75.34
2016-12-02T06:08:13.814Z,75.43
2016-12-02T06:09:23.825Z,75.43
2016-12-02T06:10:33.528Z,75.43
2016-12-02T06:11:43.549Z,75.72
2016-12-02T06:12:53.885Z,75.34
2016-12-02T06:14:04.212Z,75.62
2016-12-02T06:15:13.915Z,75.72
2016-12-02T06:16:23.616Z,75.34
2016-12-02T06:17:33.647Z,75.43
2016-12-02T06:18:44.013Z,75.72
2016-12-02T06:19:53.755Z,75.62
2016-12-02T06:21:03.771Z,75.43
2016-12-02T06:22:13.784Z,75.43
2016-12-02T06:23:23.486Z,75.43
2016-12-02T06:24:33.547Z,75.15
2016-12-02T06:25:42.955Z,75.24
2016-12-02T06:26:53.284Z,75.34
2016-12-02T06:28:03.292Z,74.96
2016-12-02T06:29:13.314Z,75.05
2016-12-02T06:30:23.340Z,75.15
2016-12-02T06:31:33.053Z,75.15
2016-12-02T06:32:42.755Z,75.24
2016-12-02T06:33:52.762Z,75.15
2016-12-02T06:35:02.458Z,75.24
2016-12-02T06:36:12.789Z,75.24
2016-12-02T06:37:22.491Z,75.24
2016-12-02T06:38:32.820Z,75.15
2016-12-02T06:39:43.149Z,75.34
2016-12-02T06:40:52.902Z,75.24
2016-12-02T06:42:02.923Z,75.34
2016-12-02T06:43:12.941Z,75.24
2016-12-02T06:44:22.951Z,74.87
2016-12-02T06:45:32.969Z,74.99
2016-12-02T06:46:43.291Z,75.43
2016-12-02T06:47:53.621Z,75.15
2016-12-02T06:49:03.953Z,75.09
2016-12-02T06:50:13.650Z,75.09
2016-12-02T06:51:23.663Z,75.28
2016-12-02T06:52:33.388Z,75.09
2016-12-02T06:53:43.441Z,75.19
2016-12-02T06:54:53.451Z,74.99
2016-12-02T06:56:03.473Z,75.19
2016-12-02T06:57:13.506Z,75.09
2016-12-02T06:58:23.535Z,75.28
2016-12-02T06:59:33.863Z,75.28
2016-12-02T07:00:43.867Z,75.19
2016-12-02T07:01:53.252Z,75.28
2016-12-02T07:03:02.955Z,75.47
2016-12-02T07:04:13.285Z,75.47
2016-12-02T07:05:23.313Z,75.28
2016-12-02T07:06:33.642Z,75.47
2016-12-02T07:07:43.346Z,75.38
2016-12-02T07:08:53.722Z,75.09
2016-12-02T07:10:03.439Z,74.9
2016-12-02T07:11:12.515Z,75.19
2016-12-02T07:12:22.857Z,75.19
2016-12-02T07:13:33.180Z,75.38
2016-12-02T07:14:43.505Z,75.47
2016-12-02T07:15:53.854Z,75.47
2016-12-02T07:17:04.181Z,75.28
2016-12-02T07:18:13.914Z,75.28
2016-12-02T07:19:23.937Z,75.09
2016-12-02T07:20:33.959Z,75.28
2016-12-02T07:21:43.680Z,75.47
2016-12-02T07:22:54.047Z,75.47
2016-12-02T07:24:04.385Z,75.47
2016-12-02T07:25:14.396Z,75.28
2016-12-02T07:26:24.723Z,75.28
2016-12-02T07:27:35.072Z,75.67
2016-12-02T07:28:45.090Z,75.67
2016-12-02T07:29:55.099Z,74.99
2016-12-02T07:31:05.125Z,74.99
2016-12-02T07:32:15.457Z,74.99
2016-12-02T07:33:25.785Z,75.67
2016-12-02T07:34:36.126Z,75.19
2016-12-02T07:35:45.523Z,75.38
2016-12-02T07:36:55.543Z,74.9
2016-12-02T07:38:05.890Z,74.9
2016-12-02T07:39:16.212Z,75.19
2016-12-02T07:40:26.535Z,74.99
2016-12-02T07:41:36.567Z,75.23
2016-12-02T07:42:46.588Z,75.32
2016-12-02T07:43:56.605Z,74.94
2016-12-02T07:45:06.312Z,74.84
2016-12-02T07:46:16.338Z,74.75
2016-12-02T07:47:26.372Z,74.56
2016-12-02T07:48:36.692Z,74.75
2016-12-02T07:49:46.713Z,74.56
2016-12-02T07:50:57.056Z,73.7
2016-12-02T07:52:07.085Z,73.99
2016-12-02T07:53:16.788Z,73.8
2016-12-02T07:54:27.129Z,74.21
2016-12-02T07:55:37.462Z,73.93
2016-12-02T07:56:47.791Z,74.12
2016-12-02T07:57:57.176Z,74.21
2016-12-02T07:59:07.520Z,74.31
2016-12-02T08:00:18.093Z,73.74
2016-12-02T08:01:27.814Z,74.21
2016-12-02T08:02:38.140Z,74.02
2016-12-02T08:03:48.485Z,74.12
2016-12-02T08:04:58.498Z,74.12
2016-12-02T08:06:08.845Z,73.83
2016-12-02T08:07:19.177Z,74.21
2016-12-02T08:08:29.201Z,74.4
2016-12-02T08:09:39.545Z,74.12
2016-12-02T08:10:49.542Z,74.98
2016-12-02T08:11:59.863Z,74.84
2016-12-02T08:13:10.200Z,74.65
2016-12-02T08:14:20.251Z,75.13
2016-12-02T08:15:29.638Z,75.32
2016-12-02T08:16:39.585Z,75.51
2016-12-02T08:17:49.616Z,75.23
2016-12-02T08:18:59.945Z,75.32
2016-12-02T08:20:09.970Z,75.04
2016-12-02T08:21:19.981Z,74.8
2016-12-02T08:22:30.304Z,75.28
2016-12-02T08:23:40.620Z,75.28
2016-12-02T08:24:50.951Z,75.28
2016-12-02T08:26:01.291Z,75.38
2016-12-02T08:27:11.309Z,75.19
2016-12-02T08:28:21.635Z,75.28
2016-12-02T08:29:31.968Z,75.19
2016-12-02T08:30:41.688Z,75.38
2016-12-02T08:31:52.017Z,74.99
2016-12-02T08:33:02.372Z,75.19
2016-12-02T08:34:12.099Z,75.19
2016-12-02T08:35:22.427Z,75.57
2016-12-02T08:36:32.757Z,75.19
2016-12-02T08:37:42.167Z,74.96
2016-12-02T08:38:52.489Z,75.43
2016-12-02T08:40:02.827Z,75.72
2016-12-02T08:41:13.174Z,75.72
2016-12-02T08:42:23.498Z,75.62
2016-12-02T08:43:33.522Z,75.4
2016-12-02T08:44:43.551Z,75.59
2016-12-02T08:45:53.575Z,75.59
2016-12-02T08:47:03.281Z,75.78
2016-12-02T08:48:13.298Z,75.84
2016-12-02T08:49:23.635Z,76.21
2016-12-02T08:50:33.334Z,75.64
2016-12-02T08:51:43.668Z,75.64
2016-12-02T08:52:53.695Z,75.64
2016-12-02T08:54:04.018Z,75.74
2016-12-02T08:55:14.353Z,75.64
2016-12-02T08:56:24.695Z,75.84
2016-12-02T08:57:34.421Z,75.36
2016-12-02T08:58:44.771Z,75.26
2016-12-02T08:59:54.465Z,75.13
2016-12-02T09:01:04.486Z,75.51
2016-12-02T09:02:14.503Z,75.23
2016-12-02T09:03:24.841Z,75.13
2016-12-02T09:04:35.166Z,75.04
2016-12-02T09:05:45.498Z,74.85
2016-12-02T09:06:55.823Z,74.94
2016-12-02T09:08:05.833Z,74.85
2016-12-02T09:09:16.149Z,75.23
2016-12-02T09:10:26.470Z,74.51
2016-12-02T09:11:36.833Z,74.6
2016-12-02T09:12:47.154Z,73.99
2016-12-02T09:13:56.554Z,74.03
2016-12-02T09:15:06.921Z,73.84
2016-12-02T09:16:17.007Z,73.84
2016-12-02T09:17:27.067Z,73.84
2016-12-02T09:18:37.403Z,73.65
2016-12-02T09:19:47.808Z,73.36
2016-12-02T09:20:58.154Z,73.3
2016-12-02T09:22:07.867Z,73.4
2016-12-02T09:23:17.248Z,72.83
2016-12-02T09:24:27.296Z,73.02
2016-12-02T09:25:37.351Z,73.02
2016-12-02T09:26:47.368Z,73.21
2016-12-02T09:27:57.093Z,73.3
2016-12-02T09:29:07.416Z,73.4
2016-12-02T09:30:17.121Z,73.59
2016-12-02T09:31:27.495Z,73.69
2016-12-02T09:32:37.862Z,74.07
2016-12-02T09:33:48.204Z,74.16
2016-12-02T09:34:58.225Z,74.07
2016-12-02T09:36:07.667Z,73.97
2016-12-02T09:37:17.684Z,73.69
2016-12-02T09:38:27.384Z,73.91
2016-12-02T09:39:37.769Z,73.63
2016-12-02T09:40:48.114Z,73.53
2016-12-02T09:41:58.143Z,74.01
2016-12-02T09:43:07.848Z,74.1
2016-12-02T09:44:17.866Z,74.2
2016-12-02T09:45:27.887Z,73.72
2016-12-02T09:46:37.302Z,73.63
2016-12-02T09:47:47.632Z,73.91
2016-12-02T09:48:57.947Z,73.53
2016-12-02T09:50:07.964Z,73.53
2016-12-02T09:51:18.000Z,73.72
2016-12-02T09:52:28.026Z,73.63
2016-12-02T09:53:38.350Z,73.53
2016-12-02T09:54:48.366Z,73.82
2016-12-02T09:55:58.462Z,73.63
2016-12-02T09:57:08.489Z,73.63
2016-12-02T09:58:18.820Z,73.63
2016-12-02T09:59:29.172Z,73.63
2016-12-02T10:00:39.489Z,73.44
2016-12-02T10:01:49.825Z,73.19
2016-12-02T10:02:59.853Z,73.28
2016-12-02T10:04:09.870Z,73.47
2016-12-02T10:05:19.902Z,73.47
2016-12-02T10:06:29.913Z,73
2016-12-02T10:07:39.614Z,73.66
2016-12-02T10:08:49.332Z,73.66
2016-12-02T10:09:59.667Z,73.38
2016-12-02T10:11:09.999Z,73
2016-12-02T10:12:20.326Z,72.71
2016-12-02T10:13:30.342Z,72.9
2016-12-02T10:14:40.675Z,72.9
2016-12-02T10:15:50.386Z,73.47
2016-12-02T10:17:00.708Z,73.38
2016-12-02T10:18:11.050Z,74.04
2016-12-02T10:19:21.387Z,73.47
2016-12-02T10:20:31.407Z,73.47
2016-12-02T10:21:41.779Z,73.1
2016-12-02T10:22:51.797Z,73.1
2016-12-02T10:24:02.125Z,72.81
2016-12-02T10:25:11.855Z,73.1
2016-12-02T10:26:22.177Z,73.19
2016-12-02T10:27:32.204Z,72.81
2016-12-02T10:28:41.922Z,73.1
2016-12-02T10:29:51.648Z,73.22
2016-12-02T10:31:01.969Z,73.13
2016-12-02T10:32:11.966Z,72.75
2016-12-02T10:33:22.298Z,72.65
2016-12-02T10:34:32.321Z,73.03
2016-12-02T10:35:42.341Z,72.08
2016-12-02T10:36:52.662Z,72.41
2016-12-02T10:38:03.013Z,72.5
2016-12-02T10:39:13.325Z,72.6
2016-12-02T10:40:23.657Z,72.12
2016-12-02T10:41:33.683Z,72.21
2016-12-02T10:42:44.007Z,72.31
2016-12-02T10:43:54.375Z,72.31
2016-12-02T10:45:03.775Z,72.88
2016-12-02T10:46:13.801Z,72.88
2016-12-02T10:47:24.128Z,72.97
2016-12-02T10:48:34.156Z,72.92
2016-12-02T10:49:44.487Z,72.82
2016-12-02T10:50:54.834Z,72.92
2016-12-02T10:52:05.324Z,72.63
2016-12-02T10:53:15.351Z,72.82
2016-12-02T10:54:25.360Z,73.01
2016-12-02T10:55:35.065Z,72.82
2016-12-02T10:56:45.182Z,72.72
2016-12-02T10:57:55.515Z,72.72
2016-12-02T10:59:05.542Z,72.72
2016-12-02T11:00:15.265Z,72.82
2016-12-02T11:01:25.588Z,72.92
2016-12-02T11:02:35.707Z,72.53
2016-12-02T11:03:46.030Z,73.11
2016-12-02T11:04:56.364Z,72.92
2016-12-02T11:12:27.729Z,72.82
2016-12-02T11:13:37.760Z,72.92
2016-12-02T11:14:47.779Z,72.92
2016-12-02T11:15:58.104Z,73.3
2016-12-02T11:17:07.814Z,73.21
2016-12-02T11:18:17.846Z,73.21
2016-12-02T11:19:28.178Z,73.21
2016-12-02T11:20:38.197Z,73.01
2016-12-02T11:21:48.214Z,73.01
2016-12-02T11:22:58.543Z,73.21
2016-12-02T11:24:08.890Z,73.21
2016-12-02T11:25:19.212Z,73.49
2016-12-02T11:26:29.550Z,72.53
2016-12-02T11:27:39.583Z,72.63
2016-12-02T11:28:49.605Z,72.63
2016-12-02T11:29:59.620Z,73.3
2016-12-02T11:31:09.941Z,72.09
2016-12-02T11:32:19.977Z,72.38
2016-12-02T11:33:30.297Z,72.96
2016-12-02T11:34:39.991Z,72.48
2016-12-02T11:35:49.998Z,73.39
2016-12-02T11:37:00.321Z,73.01
2016-12-02T11:38:10.647Z,73.01
2016-12-02T11:39:20.672Z,73.11
2016-12-02T11:40:30.705Z,73.01
2016-12-02T11:41:41.022Z,73.01
2016-12-02T11:42:51.353Z,73.11
2016-12-02T11:44:01.365Z,73.21
2016-12-02T11:45:11.696Z,73.49
2016-12-02T11:46:21.734Z,73.21
2016-12-02T11:47:31.441Z,73.21
2016-12-02T11:48:41.759Z,72.92
2016-12-02T11:49:51.476Z,73.01
2016-12-02T11:51:01.806Z,73.01
2016-12-02T11:52:11.841Z,72.88
2016-12-02T11:53:21.868Z,73.11
2016-12-02T11:54:31.567Z,73.01
2016-12-02T11:55:41.903Z,73.21
2016-12-02T11:56:51.919Z,73.07
2016-12-02T11:58:01.622Z,73.45
2016-12-02T11:59:11.622Z,73.55
2016-12-02T12:00:21.659Z,73.65
2016-12-02T12:01:31.050Z,73.65
2016-12-02T12:02:41.387Z,73.36
2016-12-02T12:03:51.704Z,73.83
2016-12-02T12:05:01.747Z,74.12
2016-12-02T12:06:11.452Z,73.45
2016-12-02T12:07:21.786Z,73.65
2016-12-02T12:08:31.801Z,73.65
2016-12-02T12:09:42.165Z,73.55
2016-12-02T12:10:51.879Z,73.74
2016-12-02T12:12:02.222Z,73.83
2016-12-02T12:13:12.565Z,73.83
2016-12-02T12:14:21.950Z,73.89
2016-12-02T12:15:32.268Z,73.8
2016-12-02T12:16:42.302Z,74.56
2016-12-02T12:17:52.630Z,74.75
2016-12-02T12:19:02.346Z,74.75
2016-12-02T12:20:12.371Z,74.56
2016-12-02T12:21:22.705Z,74.62
2016-12-02T12:22:33.038Z,74.94
2016-12-02T12:23:42.734Z,74.62
2016-12-02T12:24:53.061Z,74.71
2016-12-02T12:26:03.083Z,74.62
2016-12-02T12:27:13.439Z,74.62
2016-12-02T12:28:23.765Z,74.8
2016-12-02T12:29:33.505Z,74.71
2016-12-02T12:30:43.845Z,74.62
2016-12-02T12:31:53.561Z,74.33
2016-12-02T12:33:03.886Z,74.71
2016-12-02T12:34:13.919Z,74.62
2016-12-02T12:35:23.936Z,74.71
2016-12-02T12:36:34.307Z,74.62
2016-12-02T12:37:44.625Z,74.58
2016-12-02T12:38:54.957Z,74.58
2016-12-02T12:40:04.959Z,74.58
2016-12-02T12:41:14.966Z,74.58
2016-12-02T12:42:25.321Z,74.77
2016-12-02T12:43:35.078Z,74.1
2016-12-02T12:44:45.401Z,74.67
2016-12-02T12:45:55.742Z,74.58
2016-12-02T12:47:05.778Z,74.77
2016-12-02T12:48:15.503Z,73.72
2016-12-02T12:49:25.517Z,72.62
2016-12-02T12:50:35.253Z,71.89
2016-12-02T12:51:45.005Z,71.61
2016-12-02T12:52:55.032Z,72.6
2016-12-02T12:54:05.414Z,72.75
2016-12-02T12:55:15.735Z,73.32
2016-12-02T12:56:25.442Z,73.03
2016-12-02T12:57:35.168Z,72.6
2016-12-02T12:58:45.184Z,73.07
2016-12-02T12:59:55.199Z,72.85
2016-12-02T13:01:05.520Z,73.03
2016-12-02T13:02:15.853Z,72.85
2016-12-02T13:03:25.881Z,73.13
2016-12-02T13:04:36.209Z,72.41
2016-12-02T13:05:45.916Z,72.6
2016-12-02T13:06:55.937Z,72.41
2016-12-02T13:08:06.260Z,72.5
2016-12-02T13:09:16.290Z,72.5
2016-12-02T13:10:26.627Z,72.41
2016-12-02T13:11:36.343Z,72.41
2016-12-02T13:12:46.366Z,72.25
2016-12-02T13:13:56.697Z,72.25
2016-12-02T13:15:06.731Z,73.21
2016-12-02T13:16:16.827Z,73.11
2016-12-02T13:17:26.853Z,73.11
2016-12-02T13:18:36.876Z,73.01
2016-12-02T13:19:46.895Z,72.82
2016-12-02T13:20:56.613Z,72.82
2016-12-02T13:22:06.950Z,72.82
2016-12-02T13:23:16.676Z,73.01
2016-12-02T13:24:26.705Z,72.44
2016-12-02T13:25:36.716Z,72.34
2016-12-02T13:26:46.728Z,73.11
2016-12-02T13:27:56.748Z,73.21
2016-12-02T13:29:07.082Z,73.39
2016-12-02T13:30:17.107Z,73.39
2016-12-02T13:31:27.429Z,73.01
2016-12-02T13:32:37.447Z,73.21
2016-12-02T13:33:47.777Z,73.21
2016-12-02T13:34:57.487Z,73.21
2016-12-02T13:36:07.510Z,73.21
2016-12-02T13:37:17.861Z,73.01
2016-12-02T13:38:27.549Z,73.39
2016-12-02T13:39:37.886Z,73.39
2016-12-02T13:40:48.232Z,73.21
2016-12-02T13:41:58.246Z,73.21
2016-12-02T13:43:08.283Z,73.01
2016-12-02T13:44:18.296Z,73.01
2016-12-02T13:45:28.634Z,73.21
2016-12-02T13:46:38.983Z,73.21
2016-12-02T13:47:49.309Z,72.92
2016-12-02T13:48:59.644Z,73.11
2016-12-02T13:50:09.979Z,72.92
2016-12-02T13:51:20.334Z,73.55
2016-12-02T13:52:30.683Z,73.83
2016-12-02T13:53:41.019Z,73.74
2016-12-02T13:54:51.348Z,73.65
2016-12-02T13:56:01.683Z,73.65
2016-12-02T13:57:12.020Z,73.45
2016-12-02T13:58:22.034Z,73.17
2016-12-02T13:59:31.742Z,73.83
2016-12-02T14:00:42.061Z,73.55
2016-12-02T14:01:52.417Z,73.45
2016-12-02T14:03:02.439Z,73.36
2016-12-02T14:04:12.462Z,73.36
2016-12-02T14:05:22.792Z,73.55
2016-12-02T14:06:32.829Z,73.55
2016-12-02T14:07:42.851Z,73.65
2016-12-02T14:08:52.872Z,73.45
2016-12-02T14:10:02.588Z,73.55
2016-12-02T14:11:12.642Z,73.36
2016-12-02T14:12:22.997Z,74.12
2016-12-02T14:13:32.703Z,74.21
2016-12-02T14:14:43.036Z,74.12
2016-12-02T14:15:52.748Z,73.93
2016-12-02T14:17:02.768Z,74.02
2016-12-02T14:18:12.466Z,74.12
2016-12-02T14:19:22.793Z,74.75
2016-12-02T14:20:32.819Z,74.56
2016-12-02T14:21:43.146Z,74.65
2016-12-02T14:22:53.173Z,74.84
2016-12-02T14:24:03.205Z,74.65
2016-12-02T14:25:13.231Z,75.09
2016-12-02T14:26:23.543Z,74.99
2016-12-02T14:27:33.871Z,75.57
2016-12-02T14:28:44.201Z,75.19
2016-12-02T14:29:54.220Z,75.28
2016-12-02T14:31:03.918Z,75.28
2016-12-02T14:32:14.263Z,74.87
2016-12-02T14:33:24.603Z,75.24
2016-12-02T14:34:34.635Z,75.24
2016-12-02T14:35:44.651Z,75.43
2016-12-02T14:36:54.685Z,75.34
2016-12-02T14:38:04.421Z,75.53
2016-12-02T14:39:14.429Z,75.15
2016-12-02T14:40:24.444Z,75.3
2016-12-02T14:41:34.779Z,75.3
2016-12-02T14:42:44.507Z,75.59
2016-12-02T14:43:54.828Z,75.11
2016-12-02T14:45:05.165Z,74.82
2016-12-02T14:46:15.210Z,74.73
2016-12-02T14:47:25.246Z,75.02
2016-12-02T14:48:35.279Z,74.92
2016-12-02T14:49:45.614Z,75.11
2016-12-02T14:50:55.638Z,74.92
2016-12-02T14:52:05.664Z,74.88
2016-12-02T14:53:15.993Z,75.07
2016-12-02T14:54:26.012Z,74.88
2016-12-02T14:55:36.286Z,75.07
2016-12-02T14:56:46.615Z,75.07
2016-12-02T14:57:56.642Z,74.79
2016-12-02T14:59:06.984Z,74.79
2016-12-02T15:00:17.352Z,74.6
2016-12-02T15:01:27.373Z,74.31
2016-12-02T15:02:37.707Z,74.79
2016-12-02T15:03:47.722Z,74.51
2016-12-02T15:04:57.457Z,74.69
2016-12-02T15:06:07.800Z,74.69
2016-12-02T15:07:18.165Z,74.79
2016-12-02T15:08:28.521Z,74.6
2016-12-02T15:09:38.841Z,74.51
2016-12-02T15:10:48.861Z,74.6
2016-12-02T15:11:58.875Z,74.69
2016-12-02T15:13:08.594Z,74.6
2016-12-02T15:14:18.604Z,74.69
2016-12-02T15:15:28.005Z,74.79
2016-12-02T15:16:38.041Z,74.6
2016-12-02T15:17:48.072Z,74.69
2016-12-02T15:18:58.095Z,74.69
2016-12-02T15:20:08.114Z,74.66
2016-12-02T15:21:18.136Z,74.66
2016-12-02T15:22:28.461Z,74.47
2016-12-02T15:23:38.494Z,74.56
2016-12-02T15:24:48.507Z,74.66
2016-12-02T15:25:58.888Z,74.47
2016-12-02T15:27:08.899Z,74.47
2016-12-02T15:28:18.933Z,74.66
2016-12-02T15:29:28.953Z,74.56
2016-12-02T15:30:39.274Z,74.56
2016-12-02T15:31:48.976Z,74.18
2016-12-02T15:32:58.687Z,74.75
2016-12-02T15:34:09.015Z,74.56
2016-12-02T15:35:19.351Z,74.66
2016-12-02T15:36:29.353Z,74.75
2016-12-02T15:37:39.380Z,74.56
2016-12-02T15:38:49.415Z,74.37
2016-12-02T15:39:59.443Z,74.05
2016-12-02T15:41:09.160Z,74.18